createdAt,value
2023-04-18T00:00:34.034Z,7.99
2023-04-18T00:03:04.670Z,7.96
2023-04-18T00:05:33.894Z,7.94
2023-04-18T00:08:03.095Z,7.90
2023-04-18T00:10:31.563Z,7.88
2023-04-18T00:13:00.650Z,7.84
2023-04-18T00:15:30.465Z,7.81
2023-04-18T00:17:58.780Z,7.79
2023-04-18T00:20:27.365Z,7.79
2023-04-18T00:22:56.368Z,7.78
2023-04-18T00:25:24.741Z,7.78
2023-04-18T00:27:53.197Z,7.78
2023-04-18T00:30:21.667Z,7.79
2023-04-18T00:32:50.091Z,7.77
2023-04-18T00:35:19.747Z,7.75
2023-04-18T00:37:48.232Z,7.75
2023-04-18T00:40:17.847Z,7.75
2023-04-18T00:42:46.457Z,7.76
2023-04-18T00:45:15.868Z,7.76
2023-04-18T00:47:44.559Z,7.76
2023-04-18T00:50:13.299Z,7.77
2023-04-18T00:52:43.227Z,7.78
2023-04-18T00:55:11.792Z,7.80
2023-04-18T00:57:40.289Z,7.80
2023-04-18T01:00:10.537Z,7.81
2023-04-18T01:02:41.053Z,7.82
2023-04-18T01:05:10.018Z,7.83
2023-04-18T01:07:41.909Z,7.85
2023-04-18T01:10:10.792Z,7.88
2023-04-18T01:12:40.536Z,7.89
2023-04-18T01:15:09.478Z,7.90
2023-04-18T01:17:38.757Z,7.92
2023-04-18T01:20:08.182Z,7.91
2023-04-18T01:22:36.765Z,7.89
2023-04-18T01:25:09.336Z,7.86
2023-04-18T01:27:38.083Z,7.85
2023-04-18T01:30:07.654Z,7.85
2023-04-18T01:32:36.493Z,7.84
2023-04-18T01:35:05.823Z,7.83
2023-04-18T01:37:35.392Z,7.81
2023-04-18T01:40:04.806Z,7.76
2023-04-18T01:42:33.472Z,7.74
2023-04-18T01:45:02.515Z,7.74
2023-04-18T01:47:31.168Z,7.72
2023-04-18T01:49:59.687Z,7.72
2023-04-18T01:52:31.279Z,7.69
2023-04-18T01:54:59.721Z,7.66
2023-04-18T01:57:28.975Z,7.64
2023-04-18T01:59:57.310Z,7.60
2023-04-18T02:02:26.018Z,7.55
2023-04-18T02:04:54.458Z,7.51
2023-04-18T02:07:23.044Z,7.46
2023-04-18T02:09:51.421Z,7.43
2023-04-18T02:12:20.392Z,7.37
2023-04-18T02:14:51.763Z,7.33
2023-04-18T02:17:21.779Z,7.30
2023-04-18T02:19:53.647Z,7.27
2023-04-18T02:22:22.509Z,7.26
2023-04-18T02:24:51.011Z,7.26
2023-04-18T02:27:19.437Z,7.23
2023-04-18T02:29:48.221Z,7.21
2023-04-18T02:32:16.661Z,7.21
2023-04-18T02:34:46.087Z,7.20
2023-04-18T02:37:14.577Z,7.18
2023-04-18T02:39:43.025Z,7.17
2023-04-18T02:42:11.513Z,7.16
2023-04-18T02:44:39.975Z,7.16
2023-04-18T02:47:08.471Z,7.16
2023-04-18T02:49:39.063Z,7.15
2023-04-18T02:52:08.148Z,7.16
2023-04-18T02:54:36.516Z,7.12
2023-04-18T02:57:08.445Z,7.13
2023-04-18T02:59:54.845Z,7.15
2023-04-18T03:02:42.923Z,7.16
2023-04-18T03:05:47.264Z,7.19
2023-04-18T03:08:16.803Z,7.21
2023-04-18T03:10:45.434Z,7.25
2023-04-18T03:13:14.129Z,7.30
2023-04-18T03:15:43.190Z,7.33
2023-04-18T03:18:12.739Z,7.37
2023-04-18T03:20:41.375Z,7.41
2023-04-18T03:23:10.056Z,7.45
2023-04-18T03:25:38.422Z,7.48
2023-04-18T03:28:06.904Z,7.51
2023-04-18T03:30:36.211Z,7.55
2023-04-18T03:33:05.481Z,7.59
2023-04-18T03:35:34.353Z,7.64
2023-04-18T03:38:03.022Z,7.67
2023-04-18T03:40:34.263Z,7.73
2023-04-18T03:43:07.363Z,7.79
2023-04-18T03:45:36.856Z,7.86
2023-04-18T03:48:06.315Z,7.89
2023-04-18T03:50:36.666Z,7.94
2023-04-18T03:53:05.763Z,7.99
2023-04-18T03:55:34.749Z,8.06
2023-04-18T03:58:03.731Z,8.21
2023-04-18T04:00:32.420Z,8.29
2023-04-18T04:03:04.069Z,8.31
2023-04-18T04:05:33.139Z,8.34
2023-04-18T04:08:01.868Z,8.38
2023-04-18T04:10:30.749Z,8.47
2023-04-18T04:13:00.081Z,8.63
2023-04-18T04:15:29.451Z,8.74
2023-04-18T04:18:02.829Z,8.84
2023-04-18T04:20:31.742Z,9.01
2023-04-18T04:23:06.577Z,9.25
2023-04-18T04:25:35.970Z,9.50
2023-04-18T04:28:08.658Z,9.80
2023-04-18T04:30:44.809Z,10.10
2023-04-18T04:33:13.296Z,10.42
2023-04-18T04:35:42.076Z,10.72
2023-04-18T04:38:12.608Z,11.15
2023-04-18T04:40:46.567Z,11.64
2023-04-18T04:43:16.683Z,11.86
2023-04-18T04:45:46.565Z,11.96
2023-04-18T04:48:15.556Z,11.92
2023-04-18T04:50:44.764Z,11.73
2023-04-18T04:53:13.320Z,11.47
2023-04-18T04:55:42.115Z,11.20
2023-04-18T04:58:10.825Z,10.93
2023-04-18T05:00:48.230Z,10.69
2023-04-18T05:03:17.194Z,10.49
2023-04-18T05:05:46.095Z,10.33
2023-04-18T05:08:14.447Z,10.19
2023-04-18T05:10:43.518Z,10.14
2023-04-18T05:13:12.127Z,10.14
2023-04-18T05:15:41.121Z,10.18
2023-04-18T05:18:09.557Z,10.15
2023-04-18T05:20:37.945Z,10.14
2023-04-18T05:23:06.358Z,10.14
2023-04-18T05:25:35.003Z,10.19
2023-04-18T05:28:08.613Z,10.25
2023-04-18T05:30:37.076Z,10.31
2023-04-18T05:33:05.704Z,10.36
2023-04-18T05:35:34.267Z,10.42
2023-04-18T05:38:02.780Z,10.49
2023-04-18T05:40:31.308Z,10.58
2023-04-18T05:43:01.170Z,10.69
2023-04-18T05:45:29.759Z,10.87
2023-04-18T05:47:58.604Z,11.05
2023-04-18T05:50:27.282Z,11.17
2023-04-18T05:52:55.817Z,11.30
2023-04-18T05:55:24.232Z,11.39
2023-04-18T05:57:52.912Z,11.44
2023-04-18T06:00:21.925Z,11.49
2023-04-18T06:02:51.205Z,11.57
2023-04-18T06:05:20.327Z,11.80
2023-04-18T06:07:48.955Z,12.09
2023-04-18T06:10:17.659Z,12.37
2023-04-18T06:12:46.020Z,12.64
2023-04-18T06:15:14.500Z,12.94
2023-04-18T06:17:43.169Z,13.28
2023-04-18T06:20:12.082Z,13.57
2023-04-18T06:22:40.702Z,13.87
2023-04-18T06:25:10.225Z,13.94
2023-04-18T06:27:39.063Z,13.89
2023-04-18T06:30:08.361Z,13.92
2023-04-18T06:32:36.788Z,14.08
2023-04-18T06:35:05.837Z,14.14
2023-04-18T06:37:34.928Z,14.08
2023-04-18T06:40:03.721Z,14.15
2023-04-18T06:42:32.372Z,14.25
2023-04-18T06:45:01.088Z,14.33
2023-04-18T06:47:29.863Z,14.45
2023-04-18T06:49:58.682Z,14.57
2023-04-18T06:52:27.095Z,14.67
2023-04-18T06:54:55.768Z,14.77
2023-04-18T06:57:24.441Z,14.75
2023-04-18T06:59:53.126Z,14.93
2023-04-18T07:02:21.552Z,15.04
2023-04-18T07:04:50.484Z,15.06
2023-04-18T07:07:19.225Z,15.18
2023-04-18T07:09:49.282Z,15.41
2023-04-18T07:12:18.438Z,15.56
2023-04-18T07:14:47.269Z,15.65
2023-04-18T07:17:15.846Z,15.65
2023-04-18T07:19:44.564Z,15.64
2023-04-18T07:22:12.974Z,15.61
2023-04-18T07:24:41.426Z,15.62
2023-04-18T07:27:09.980Z,15.74
2023-04-18T07:29:38.656Z,15.91
2023-04-18T07:32:08.499Z,16.11
2023-04-18T07:34:37.874Z,16.18
2023-04-18T07:37:07.188Z,16.07
2023-04-18T07:39:36.476Z,15.86
2023-04-18T07:42:05.061Z,15.93
2023-04-18T07:44:35.289Z,16.02
2023-04-18T07:47:04.098Z,16.06
2023-04-18T07:49:32.698Z,16.21
2023-04-18T07:52:01.278Z,16.37
2023-04-18T07:54:30.047Z,16.40
2023-04-18T07:56:59.378Z,16.41
2023-04-18T07:59:29.045Z,16.41
2023-04-18T08:01:57.323Z,16.55
2023-04-18T08:04:29.101Z,16.73
2023-04-18T08:06:58.488Z,16.86
2023-04-18T08:09:26.959Z,17.05
2023-04-18T08:11:56.971Z,17.19
2023-04-18T08:14:25.374Z,17.21
2023-04-18T08:16:53.983Z,17.06
2023-04-18T08:19:22.314Z,17.01
2023-04-18T08:21:51.438Z,17.05
2023-04-18T08:24:19.802Z,16.88
2023-04-18T08:26:48.275Z,16.71
2023-04-18T08:29:16.724Z,16.72
2023-04-18T08:31:45.074Z,16.83
2023-04-18T08:34:13.718Z,17.03
2023-04-18T08:36:42.271Z,17.21
2023-04-18T08:39:11.573Z,17.31
2023-04-18T08:41:40.018Z,17.27
2023-04-18T08:44:08.562Z,17.29
2023-04-18T08:46:37.885Z,17.35
2023-04-18T08:49:06.367Z,17.47
2023-04-18T08:51:35.540Z,17.57
2023-04-18T08:54:06.402Z,17.55
2023-04-18T08:56:37.723Z,17.55
2023-04-18T08:59:06.277Z,17.52
2023-04-18T09:01:59.074Z,17.48
2023-04-18T09:04:45.053Z,17.49
2023-04-18T09:07:14.968Z,17.47
2023-04-18T09:09:45.775Z,17.34
2023-04-18T09:12:16.222Z,17.18
2023-04-18T09:14:46.991Z,16.98
2023-04-18T09:17:32.163Z,16.78
2023-04-18T09:20:01.812Z,16.73
2023-04-18T09:22:47.356Z,16.59
2023-04-18T09:25:27.637Z,16.32
2023-04-18T09:28:02.001Z,16.11
2023-04-18T09:30:35.165Z,16.01
2023-04-18T09:33:04.934Z,16.12
2023-04-18T09:35:33.581Z,16.36
2023-04-18T09:38:02.177Z,16.63
2023-04-18T09:40:31.287Z,16.91
2023-04-18T09:42:59.777Z,17.22
2023-04-18T09:45:28.903Z,17.44
2023-04-18T09:47:57.689Z,17.74
2023-04-18T09:50:26.210Z,17.88
2023-04-18T09:52:54.651Z,18.00
2023-04-18T09:55:23.318Z,18.14
2023-04-18T09:57:51.791Z,18.20
2023-04-18T10:00:25.433Z,18.21
2023-04-18T10:02:58.406Z,18.17
2023-04-18T10:05:28.754Z,18.09
2023-04-18T10:07:58.615Z,18.15
2023-04-18T10:10:27.112Z,18.23
2023-04-18T10:12:56.783Z,18.36
2023-04-18T10:15:26.630Z,18.51
2023-04-18T10:18:05.316Z,18.59
2023-04-18T10:20:35.585Z,18.65
2023-04-18T10:23:32.784Z,18.58
2023-04-18T10:26:02.000Z,18.71
2023-04-18T10:28:51.294Z,18.70
2023-04-18T10:31:23.783Z,18.65
2023-04-18T10:34:18.322Z,18.52
2023-04-18T10:37:06.373Z,18.40
2023-04-18T10:39:57.776Z,18.44
2023-04-18T10:42:48.522Z,18.72
2023-04-18T10:45:23.781Z,18.89
2023-04-18T10:48:14.771Z,18.85
2023-04-18T10:51:15.904Z,18.92
2023-04-18T10:53:51.083Z,19.05
2023-04-18T10:56:19.425Z,19.03
2023-04-18T10:58:51.732Z,18.85
2023-04-18T11:01:32.407Z,18.69
2023-04-18T11:04:01.578Z,18.67
2023-04-18T11:06:31.625Z,18.82
2023-04-18T11:09:13.589Z,18.89
2023-04-18T11:11:42.186Z,18.67
2023-04-18T11:14:10.850Z,18.34
2023-04-18T11:16:40.139Z,18.09
2023-04-18T11:19:21.925Z,17.91
2023-04-18T11:21:51.541Z,17.86
2023-04-18T11:24:24.400Z,17.88
2023-04-18T11:26:56.395Z,17.92
2023-04-18T11:29:25.153Z,17.98
2023-04-18T11:31:55.995Z,18.07
2023-04-18T11:34:30.887Z,18.19
2023-04-18T11:36:59.379Z,18.25
2023-04-18T11:39:28.087Z,18.28
2023-04-18T11:41:57.436Z,18.34
2023-04-18T11:44:26.406Z,18.39
2023-04-18T11:46:54.690Z,18.43
2023-04-18T11:49:30.140Z,18.50
2023-04-18T11:52:01.896Z,18.65
2023-04-18T11:54:48.432Z,18.78
2023-04-18T11:57:23.189Z,18.85
2023-04-18T11:59:56.565Z,18.90
2023-04-18T12:02:26.657Z,18.81
2023-04-18T12:04:59.667Z,18.69
2023-04-18T12:07:41.361Z,18.68
2023-04-18T12:10:22.128Z,18.83
2023-04-18T12:12:51.861Z,18.84
2023-04-18T12:15:20.690Z,18.72
2023-04-18T12:17:49.107Z,18.53
2023-04-18T12:20:18.636Z,18.40
2023-04-18T12:22:52.036Z,18.18
2023-04-18T12:25:27.736Z,17.98
2023-04-18T12:27:58.492Z,17.75
2023-04-18T12:30:31.872Z,17.64
2023-04-18T12:33:01.606Z,17.69
2023-04-18T12:35:31.243Z,17.72
2023-04-18T12:38:01.251Z,17.83
2023-04-18T12:40:30.045Z,18.05
2023-04-18T12:42:58.515Z,18.22
2023-04-18T12:45:27.355Z,18.46
2023-04-18T12:47:55.776Z,18.69
2023-04-18T12:50:25.537Z,18.78
2023-04-18T12:52:54.782Z,18.79
2023-04-18T12:55:23.212Z,18.80
2023-04-18T12:57:54.517Z,18.82
2023-04-18T13:00:24.158Z,18.87
2023-04-18T13:02:53.004Z,18.84
2023-04-18T13:05:22.629Z,18.81
2023-04-18T13:07:56.233Z,18.88
2023-04-18T13:10:31.164Z,18.99
2023-04-18T13:12:59.688Z,19.10
2023-04-18T13:15:28.008Z,19.12
2023-04-18T13:17:57.102Z,19.04
2023-04-18T13:20:25.807Z,18.92
2023-04-18T13:22:54.192Z,18.87
2023-04-18T13:25:23.463Z,18.82
2023-04-18T13:27:52.276Z,18.78
2023-04-18T13:30:20.652Z,18.75
2023-04-18T13:32:49.501Z,18.71
2023-04-18T13:35:18.218Z,18.67
2023-04-18T13:37:46.731Z,18.51
2023-04-18T13:40:15.805Z,18.34
2023-04-18T13:42:44.362Z,18.19
2023-04-18T13:45:12.815Z,18.02
2023-04-18T13:47:41.573Z,17.83
2023-04-18T13:50:11.165Z,17.69
2023-04-18T13:52:39.581Z,17.58
2023-04-18T13:55:08.552Z,17.48
2023-04-18T13:57:37.765Z,17.43
2023-04-18T14:00:07.308Z,17.36
2023-04-18T14:02:41.769Z,17.30
2023-04-18T14:05:10.845Z,17.26
2023-04-18T14:07:39.573Z,17.28
2023-04-18T14:10:08.687Z,17.31
2023-04-18T14:12:37.731Z,17.34
2023-04-18T14:15:07.044Z,17.38
2023-04-18T14:17:35.873Z,17.47
2023-04-18T14:20:05.494Z,17.46
2023-04-18T14:22:34.626Z,17.41
2023-04-18T14:25:03.180Z,17.35
2023-04-18T14:27:33.189Z,17.30
2023-04-18T14:30:01.706Z,17.26
2023-04-18T14:32:31.016Z,17.18
2023-04-18T14:34:59.347Z,17.03
2023-04-18T14:37:27.685Z,16.88
2023-04-18T14:39:56.466Z,16.74
2023-04-18T14:42:24.934Z,16.62
2023-04-18T14:44:53.414Z,16.51
2023-04-18T14:47:24.346Z,16.41
2023-04-18T14:49:52.840Z,16.32
2023-04-18T14:52:21.357Z,16.26
2023-04-18T14:54:49.904Z,16.21
2023-04-18T14:57:18.379Z,16.19
2023-04-18T14:59:46.861Z,16.13
2023-04-18T15:02:15.846Z,16.07
2023-04-18T15:04:44.497Z,16.02
2023-04-18T15:07:13.267Z,15.96
2023-04-18T15:09:41.730Z,15.92
2023-04-18T15:12:10.495Z,15.87
2023-04-18T15:14:39.906Z,15.84
2023-04-18T15:17:08.541Z,15.79
2023-04-18T15:19:37.746Z,15.76
2023-04-18T15:22:06.991Z,15.72
2023-04-18T15:24:35.438Z,15.68
2023-04-18T15:27:04.074Z,15.64
2023-04-18T15:29:32.430Z,15.59
2023-04-18T15:32:01.893Z,15.54
2023-04-18T15:34:30.509Z,15.48
2023-04-18T15:36:58.943Z,15.42
2023-04-18T15:39:27.527Z,15.37
2023-04-18T15:41:56.712Z,15.32
2023-04-18T15:44:24.980Z,15.27
2023-04-18T15:46:53.853Z,15.23
2023-04-18T15:49:22.843Z,15.22
2023-04-18T15:51:51.116Z,15.19
2023-04-18T15:54:19.806Z,15.17
2023-04-18T15:56:48.562Z,15.10
2023-04-18T15:59:17.176Z,15.07
2023-04-18T16:01:46.281Z,15.03
2023-04-18T16:04:15.680Z,14.98
2023-04-18T16:06:44.619Z,14.96
2023-04-18T16:09:13.343Z,14.92
2023-04-18T16:11:41.847Z,14.88
2023-04-18T16:14:10.515Z,14.84
2023-04-18T16:16:39.258Z,14.81
2023-04-18T16:19:07.678Z,14.79
2023-04-18T16:21:36.364Z,14.75
2023-04-18T16:24:05.352Z,14.71
2023-04-18T16:26:34.255Z,14.67
2023-04-18T16:29:03.051Z,14.62
2023-04-18T16:31:33.912Z,14.58
2023-04-18T16:34:03.489Z,14.54
2023-04-18T16:36:34.451Z,14.49
2023-04-18T16:39:03.007Z,14.47
2023-04-18T16:41:31.895Z,14.44
2023-04-18T16:44:00.680Z,14.41
2023-04-18T16:46:32.471Z,14.38
2023-04-18T16:49:02.030Z,14.36
2023-04-18T16:51:31.397Z,14.33
2023-04-18T16:53:59.652Z,14.32
2023-04-18T16:56:29.321Z,14.28
2023-04-18T16:58:58.769Z,14.25
2023-04-18T17:01:27.281Z,14.22
2023-04-18T17:03:56.061Z,14.11
2023-04-18T17:06:25.056Z,14.04
2023-04-18T17:08:54.102Z,13.97
2023-04-18T17:11:22.569Z,13.93
2023-04-18T17:13:51.646Z,13.96
2023-04-18T17:16:20.343Z,13.98
2023-04-18T17:18:50.112Z,13.98
2023-04-18T17:21:18.684Z,13.96
2023-04-18T17:23:47.774Z,13.94
2023-04-18T17:26:16.288Z,13.92
2023-04-18T17:28:45.027Z,13.90
2023-04-18T17:31:15.421Z,13.88
2023-04-18T17:33:44.960Z,13.86
2023-04-18T17:36:13.702Z,13.84
2023-04-18T17:38:48.957Z,13.84
2023-04-18T17:41:18.276Z,13.82
2023-04-18T17:43:48.310Z,13.78
2023-04-18T17:46:17.101Z,13.74
2023-04-18T17:48:45.668Z,13.70
2023-04-18T17:51:16.632Z,13.65
2023-04-18T17:53:45.141Z,13.59
2023-04-18T17:56:13.669Z,13.54
2023-04-18T17:58:42.555Z,13.47
2023-04-18T18:01:17.837Z,13.40
2023-04-18T18:03:47.349Z,13.36
2023-04-18T18:06:16.293Z,13.34
2023-04-18T18:08:44.780Z,13.31
2023-04-18T18:11:13.488Z,13.29
2023-04-18T18:13:42.685Z,13.27
2023-04-18T18:16:11.536Z,13.26
2023-04-18T18:18:40.352Z,13.25
2023-04-18T18:21:09.211Z,13.24
2023-04-18T18:23:37.612Z,13.22
2023-04-18T18:26:06.912Z,13.21
2023-04-18T18:28:35.976Z,13.20
2023-04-18T18:31:04.498Z,13.19
2023-04-18T18:33:33.234Z,13.22
2023-04-18T18:36:02.169Z,13.23
2023-04-18T18:38:30.781Z,13.23
2023-04-18T18:41:00.989Z,13.23
2023-04-18T18:43:31.211Z,13.24
2023-04-18T18:45:59.757Z,13.24
2023-04-18T18:48:28.471Z,13.23
2023-04-18T18:50:57.393Z,13.22
2023-04-18T18:53:26.317Z,13.22
2023-04-18T18:55:54.860Z,13.23
2023-04-18T18:58:23.325Z,13.20
2023-04-18T19:00:51.998Z,13.16
2023-04-18T19:03:21.972Z,13.12
2023-04-18T19:05:50.795Z,13.09
2023-04-18T19:08:19.509Z,13.06
2023-04-18T19:10:48.215Z,13.06
2023-04-18T19:13:21.387Z,13.02
2023-04-18T19:15:49.885Z,12.89
2023-04-18T19:18:20.178Z,12.85
2023-04-18T19:20:52.304Z,12.83
2023-04-18T19:23:21.121Z,12.81
2023-04-18T19:25:50.454Z,12.79
2023-04-18T19:28:19.320Z,12.78
2023-04-18T19:30:47.793Z,12.76
2023-04-18T19:33:17.405Z,12.72
2023-04-18T19:35:47.704Z,12.69
2023-04-18T19:38:16.208Z,12.65
2023-04-18T19:40:44.792Z,12.62
2023-04-18T19:43:13.406Z,12.60
2023-04-18T19:45:41.741Z,12.58
2023-04-18T19:48:10.340Z,12.55
2023-04-18T19:50:42.503Z,12.53
2023-04-18T19:53:11.497Z,12.51
2023-04-18T19:55:39.974Z,12.49
2023-04-18T19:58:08.575Z,12.49
2023-04-18T20:00:38.101Z,12.47
2023-04-18T20:03:06.774Z,12.44
2023-04-18T20:05:35.294Z,12.40
2023-04-18T20:08:03.916Z,12.37
2023-04-18T20:10:33.282Z,12.38
2023-04-18T20:13:02.340Z,12.35
2023-04-18T20:15:30.949Z,12.33
2023-04-18T20:17:59.561Z,12.29
2023-04-18T20:20:28.382Z,12.25
2023-04-18T20:22:56.585Z,12.23
2023-04-18T20:25:24.931Z,12.18
2023-04-18T20:27:53.710Z,12.14
2023-04-18T20:30:22.504Z,12.11
2023-04-18T20:32:50.830Z,12.07
2023-04-18T20:35:20.310Z,12.02
2023-04-18T20:37:50.000Z,12.01
2023-04-18T20:40:18.886Z,12.00
2023-04-18T20:42:47.703Z,11.98
2023-04-18T20:45:16.470Z,11.98
2023-04-18T20:47:44.984Z,11.97
2023-04-18T20:50:16.283Z,11.98
2023-04-18T20:52:44.973Z,11.99
2023-04-18T20:55:13.815Z,11.98
2023-04-18T20:57:42.140Z,11.99
2023-04-18T21:00:11.339Z,11.98
2023-04-18T21:02:41.620Z,11.98
2023-04-18T21:05:10.251Z,11.97
2023-04-18T21:07:38.942Z,11.96
2023-04-18T21:10:08.460Z,11.95
2023-04-18T21:12:37.650Z,11.95
2023-04-18T21:15:06.944Z,11.94
2023-04-18T21:17:35.693Z,11.92
2023-04-18T21:20:04.969Z,11.91
2023-04-18T21:22:33.541Z,11.90
2023-04-18T21:25:02.812Z,11.90
2023-04-18T21:27:31.399Z,11.91
2023-04-18T21:29:59.784Z,11.91
2023-04-18T21:32:28.571Z,11.91
2023-04-18T21:34:58.072Z,11.91
2023-04-18T21:37:26.450Z,11.90
2023-04-18T21:39:54.979Z,11.88
2023-04-18T21:42:23.424Z,11.86
2023-04-18T21:44:51.908Z,11.87
2023-04-18T21:47:20.928Z,11.85
2023-04-18T21:49:49.458Z,11.78
2023-04-18T21:52:18.050Z,11.71
2023-04-18T21:54:46.648Z,11.61
2023-04-18T21:57:15.131Z,11.45
2023-04-18T21:59:43.619Z,11.30
2023-04-18T22:02:12.888Z,11.17
2023-04-18T22:04:42.915Z,11.04
2023-04-18T22:07:15.930Z,10.93
2023-04-18T22:09:45.634Z,10.82
2023-04-18T22:12:16.989Z,10.73
2023-04-18T22:14:48.550Z,10.67
2023-04-18T22:17:17.100Z,10.58
2023-04-18T22:19:45.375Z,10.48
2023-04-18T22:22:13.953Z,10.38
2023-04-18T22:24:42.436Z,10.29
2023-04-18T22:27:11.124Z,10.21
2023-04-18T22:29:39.512Z,10.18
2023-04-18T22:32:08.028Z,10.14
2023-04-18T22:34:36.565Z,10.08
2023-04-18T22:37:05.174Z,10.04
2023-04-18T22:39:35.177Z,10.00
2023-04-18T22:42:03.648Z,9.97
2023-04-18T22:44:33.356Z,9.96
2023-04-18T22:47:03.351Z,9.95
2023-04-18T22:49:33.484Z,9.95
2023-04-18T22:52:01.972Z,9.94
2023-04-18T22:54:31.273Z,9.93
2023-04-18T22:56:59.793Z,9.91
2023-04-18T22:59:28.256Z,9.88
2023-04-18T23:01:57.539Z,9.84
2023-04-18T23:04:26.651Z,9.83
2023-04-18T23:06:55.120Z,9.84
2023-04-18T23:09:24.640Z,9.86
2023-04-18T23:11:53.026Z,9.90
2023-04-18T23:14:21.695Z,9.93
2023-04-18T23:16:50.064Z,9.95
2023-04-18T23:19:18.524Z,9.99
2023-04-18T23:21:48.982Z,9.99
2023-04-18T23:24:18.117Z,10.01
2023-04-18T23:26:46.892Z,10.03
2023-04-18T23:29:15.365Z,10.05
2023-04-18T23:31:43.968Z,10.07
2023-04-18T23:34:12.727Z,10.07
2023-04-18T23:36:41.297Z,10.09
2023-04-18T23:39:09.867Z,10.12
2023-04-18T23:41:38.743Z,10.14
2023-04-18T23:44:07.456Z,10.15
2023-04-18T23:46:36.621Z,10.17
2023-04-18T23:49:05.242Z,10.17
2023-04-18T23:51:33.756Z,10.16
2023-04-18T23:54:02.224Z,10.07
2023-04-18T23:56:30.898Z,10.04
2023-04-18T23:58:59.476Z,10.04
